sensor_id;sensor_type;location;lat;lon;timestamp;P1;durP1;ratioP1;P2;durP2;ratioP2
82244;SDS011;71849;50.096;14.458;2023-11-22T00:00:27;3.67;;;1.42;;
82244;SDS011;71849;50.096;14.458;2023-11-22T00:02:56;3.78;;;1.15;;
82244;SDS011;71849;50.096;14.458;2023-11-22T00:05:25;3.50;;;1.20;;
82244;SDS011;71849;50.096;14.458;2023-11-22T00:07:56;4.05;;;1.15;;
82244;SDS011;71849;50.096;14.458;2023-11-22T00:10:25;2.35;;;1.05;;
82244;SDS011;71849;50.096;14.458;2023-11-22T00:12:53;5.53;;;1.63;;
82244;SDS011;71849;50.096;14.458;2023-11-22T00:15:23;3.60;;;1.30;;
82244;SDS011;71849;50.096;14.458;2023-11-22T00:17:52;3.10;;;1.52;;
82244;SDS011;71849;50.096;14.458;2023-11-22T00:20:22;3.67;;;1.90;;
82244;SDS011;71849;50.096;14.458;2023-11-22T00:22:52;3.75;;;1.45;;
82244;SDS011;71849;50.096;14.458;2023-11-22T00:25:23;3.28;;;1.58;;
82244;SDS011;71849;50.096;14.458;2023-11-22T00:27:52;4.45;;;1.70;;
82244;SDS011;71849;50.096;14.458;2023-11-22T00:30:20;2.70;;;1.50;;
82244;SDS011;71849;50.096;14.458;2023-11-22T00:32:49;5.20;;;1.88;;
82244;SDS011;71849;50.096;14.458;2023-11-22T00:35:17;5.03;;;1.80;;
82244;SDS011;71849;50.096;14.458;2023-11-22T00:37:46;3.88;;;1.60;;
82244;SDS011;71849;50.096;14.458;2023-11-22T00:40:14;4.40;;;1.75;;
82244;SDS011;71849;50.096;14.458;2023-11-22T00:42:46;5.43;;;2.08;;
82244;SDS011;71849;50.096;14.458;2023-11-22T00:45:15;4.30;;;1.75;;
82244;SDS011;71849;50.096;14.458;2023-11-22T00:47:43;4.35;;;1.70;;
82244;SDS011;71849;50.096;14.458;2023-11-22T00:50:12;5.45;;;2.05;;
82244;SDS011;71849;50.096;14.458;2023-11-22T00:52:44;5.32;;;1.90;;
82244;SDS011;71849;50.096;14.458;2023-11-22T00:55:13;5.68;;;2.00;;
82244;SDS011;71849;50.096;14.458;2023-11-22T00:57:42;5.47;;;2.22;;
82244;SDS011;71849;50.096;14.458;2023-11-22T01:00:13;2.60;;;1.42;;
82244;SDS011;71849;50.096;14.458;2023-11-22T01:02:43;6.13;;;2.35;;
82244;SDS011;71849;50.096;14.458;2023-11-22T01:05:11;5.78;;;2.67;;
82244;SDS011;71849;50.096;14.458;2023-11-22T01:07:40;6.43;;;2.03;;
82244;SDS011;71849;50.096;14.458;2023-11-22T01:10:09;6.68;;;2.47;;
82244;SDS011;71849;50.096;14.458;2023-11-22T01:12:38;5.30;;;2.33;;
82244;SDS011;71849;50.096;14.458;2023-11-22T01:15:07;7.32;;;3.22;;
82244;SDS011;71849;50.096;14.458;2023-11-22T01:17:39;4.63;;;2.40;;
82244;SDS011;71849;50.096;14.458;2023-11-22T01:20:08;6.38;;;2.95;;
82244;SDS011;71849;50.096;14.458;2023-11-22T01:22:39;6.90;;;3.60;;
82244;SDS011;71849;50.096;14.458;2023-11-22T01:25:07;7.70;;;3.40;;
82244;SDS011;71849;50.096;14.458;2023-11-22T01:27:36;6.57;;;3.13;;
82244;SDS011;71849;50.096;14.458;2023-11-22T01:30:05;7.53;;;3.65;;
82244;SDS011;71849;50.096;14.458;2023-11-22T01:32:35;9.60;;;4.10;;
82244;SDS011;71849;50.096;14.458;2023-11-22T01:35:07;8.43;;;3.92;;
82244;SDS011;71849;50.096;14.458;2023-11-22T01:37:36;8.15;;;3.25;;
82244;SDS011;71849;50.096;14.458;2023-11-22T01:40:05;10.25;;;4.47;;
82244;SDS011;71849;50.096;14.458;2023-11-22T01:42:35;7.25;;;3.72;;
82244;SDS011;71849;50.096;14.458;2023-11-22T01:45:05;8.10;;;3.72;;
82244;SDS011;71849;50.096;14.458;2023-11-22T01:47:35;8.70;;;5.00;;
82244;SDS011;71849;50.096;14.458;2023-11-22T01:50:07;12.02;;;5.90;;
82244;SDS011;71849;50.096;14.458;2023-11-22T01:52:37;11.38;;;4.97;;
82244;SDS011;71849;50.096;14.458;2023-11-22T01:55:08;9.43;;;4.70;;
82244;SDS011;71849;50.096;14.458;2023-11-22T01:57:37;10.88;;;5.15;;
82244;SDS011;71849;50.096;14.458;2023-11-22T02:00:06;9.23;;;4.63;;
82244;SDS011;71849;50.096;14.458;2023-11-22T02:02:40;11.43;;;6.05;;
82244;SDS011;71849;50.096;14.458;2023-11-22T02:05:11;13.95;;;6.75;;
82244;SDS011;71849;50.096;14.458;2023-11-22T02:07:40;12.20;;;5.68;;
82244;SDS011;71849;50.096;14.458;2023-11-22T02:10:09;11.43;;;5.90;;
82244;SDS011;71849;50.096;14.458;2023-11-22T02:12:37;10.88;;;5.10;;
82244;SDS011;71849;50.096;14.458;2023-11-22T02:15:07;12.20;;;5.85;;
82244;SDS011;71849;50.096;14.458;2023-11-22T02:17:36;13.10;;;6.03;;
82244;SDS011;71849;50.096;14.458;2023-11-22T02:20:05;10.40;;;4.95;;
82244;SDS011;71849;50.096;14.458;2023-11-22T02:22:44;9.18;;;4.55;;
82244;SDS011;71849;50.096;14.458;2023-11-22T02:25:16;9.23;;;4.68;;
82244;SDS011;71849;50.096;14.458;2023-11-22T02:27:45;10.50;;;4.93;;
82244;SDS011;71849;50.096;14.458;2023-11-22T02:30:14;11.32;;;5.18;;
82244;SDS011;71849;50.096;14.458;2023-11-22T02:32:42;11.60;;;5.85;;
82244;SDS011;71849;50.096;14.458;2023-11-22T02:35:12;9.15;;;4.18;;
82244;SDS011;71849;50.096;14.458;2023-11-22T02:37:41;6.97;;;3.20;;
82244;SDS011;71849;50.096;14.458;2023-11-22T02:40:13;10.25;;;4.57;;
82244;SDS011;71849;50.096;14.458;2023-11-22T02:42:47;6.32;;;3.13;;
82244;SDS011;71849;50.096;14.458;2023-11-22T02:45:17;10.13;;;4.57;;
82244;SDS011;71849;50.096;14.458;2023-11-22T02:47:48;10.52;;;5.60;;
82244;SDS011;71849;50.096;14.458;2023-11-22T02:50:17;9.32;;;3.95;;
82244;SDS011;71849;50.096;14.458;2023-11-22T02:52:46;7.13;;;3.83;;
82244;SDS011;71849;50.096;14.458;2023-11-22T02:55:15;9.20;;;4.13;;
82244;SDS011;71849;50.096;14.458;2023-11-22T02:57:47;7.47;;;3.90;;
82244;SDS011;71849;50.096;14.458;2023-11-22T03:00:16;9.02;;;4.05;;
82244;SDS011;71849;50.096;14.458;2023-11-22T03:02:46;9.05;;;4.45;;
82244;SDS011;71849;50.096;14.458;2023-11-22T03:05:17;9.18;;;4.65;;
82244;SDS011;71849;50.096;14.458;2023-11-22T03:07:45;9.07;;;4.80;;
82244;SDS011;71849;50.096;14.458;2023-11-22T03:10:16;8.98;;;4.20;;
82244;SDS011;71849;50.096;14.458;2023-11-22T03:12:48;8.18;;;3.92;;
82244;SDS011;71849;50.096;14.458;2023-11-22T03:15:17;8.68;;;4.50;;
82244;SDS011;71849;50.096;14.458;2023-11-22T03:17:45;10.20;;;4.38;;
82244;SDS011;71849;50.096;14.458;2023-11-22T03:20:14;10.23;;;4.05;;
82244;SDS011;71849;50.096;14.458;2023-11-22T03:22:41;10.45;;;4.65;;
82244;SDS011;71849;50.096;14.458;2023-11-22T03:25:10;6.55;;;3.10;;
82244;SDS011;71849;50.096;14.458;2023-11-22T03:27:39;9.55;;;4.85;;
82244;SDS011;71849;50.096;14.458;2023-11-22T03:30:10;11.40;;;5.15;;
82244;SDS011;71849;50.096;14.458;2023-11-22T03:32:40;11.30;;;5.35;;
82244;SDS011;71849;50.096;14.458;2023-11-22T03:35:09;15.77;;;6.68;;
82244;SDS011;71849;50.096;14.458;2023-11-22T03:37:38;11.98;;;4.97;;
82244;SDS011;71849;50.096;14.458;2023-11-22T03:40:07;14.30;;;5.88;;
82244;SDS011;71849;50.096;14.458;2023-11-22T03:42:36;12.15;;;5.78;;
82244;SDS011;71849;50.096;14.458;2023-11-22T03:45:06;13.05;;;6.13;;
82244;SDS011;71849;50.096;14.458;2023-11-22T03:47:39;14.10;;;6.07;;
82244;SDS011;71849;50.096;14.458;2023-11-22T03:50:08;14.65;;;6.63;;
82244;SDS011;71849;50.096;14.458;2023-11-22T03:52:36;16.40;;;7.57;;
82244;SDS011;71849;50.096;14.458;2023-11-22T03:55:05;12.75;;;6.40;;
82244;SDS011;71849;50.096;14.458;2023-11-22T03:57:34;11.60;;;5.55;;
82244;SDS011;71849;50.096;14.458;2023-11-22T04:00:04;13.48;;;6.53;;
82244;SDS011;71849;50.096;14.458;2023-11-22T04:02:37;12.05;;;5.80;;
82244;SDS011;71849;50.096;14.458;2023-11-22T04:05:07;11.50;;;5.28;;
82244;SDS011;71849;50.096;14.458;2023-11-22T04:07:36;13.27;;;7.10;;
82244;SDS011;71849;50.096;14.458;2023-11-22T04:10:05;13.93;;;7.18;;
82244;SDS011;71849;50.096;14.458;2023-11-22T04:12:37;13.63;;;7.35;;
82244;SDS011;71849;50.096;14.458;2023-11-22T04:15:06;13.63;;;6.43;;
82244;SDS011;71849;50.096;14.458;2023-11-22T04:17:39;13.95;;;6.53;;
82244;SDS011;71849;50.096;14.458;2023-11-22T04:20:08;14.45;;;6.65;;
82244;SDS011;71849;50.096;14.458;2023-11-22T04:22:39;11.82;;;6.20;;
82244;SDS011;71849;50.096;14.458;2023-11-22T04:27:38;13.00;;;5.35;;
82244;SDS011;71849;50.096;14.458;2023-11-22T04:30:08;13.57;;;6.32;;
82244;SDS011;71849;50.096;14.458;2023-11-22T04:32:41;12.52;;;6.03;;
82244;SDS011;71849;50.096;14.458;2023-11-22T04:35:10;14.30;;;6.38;;
82244;SDS011;71849;50.096;14.458;2023-11-22T04:37:38;14.82;;;6.97;;
82244;SDS011;71849;50.096;14.458;2023-11-22T04:40:08;13.38;;;6.10;;
82244;SDS011;71849;50.096;14.458;2023-11-22T04:42:42;13.23;;;6.80;;
82244;SDS011;71849;50.096;14.458;2023-11-22T04:45:13;14.65;;;6.25;;
82244;SDS011;71849;50.096;14.458;2023-11-22T04:47:45;12.65;;;5.68;;
82244;SDS011;71849;50.096;14.458;2023-11-22T04:50:14;15.15;;;6.55;;
82244;SDS011;71849;50.096;14.458;2023-11-22T04:52:42;14.25;;;7.18;;
82244;SDS011;71849;50.096;14.458;2023-11-22T04:55:11;15.50;;;6.82;;
82244;SDS011;71849;50.096;14.458;2023-11-22T04:57:40;13.20;;;6.28;;
82244;SDS011;71849;50.096;14.458;2023-11-22T05:00:09;12.57;;;6.38;;
82244;SDS011;71849;50.096;14.458;2023-11-22T05:02:39;13.77;;;7.13;;
82244;SDS011;71849;50.096;14.458;2023-11-22T05:05:10;15.38;;;6.68;;
82244;SDS011;71849;50.096;14.458;2023-11-22T05:07:39;15.13;;;7.20;;
82244;SDS011;71849;50.096;14.458;2023-11-22T05:10:09;15.27;;;6.63;;
82244;SDS011;71849;50.096;14.458;2023-11-22T05:12:39;12.60;;;6.03;;
82244;SDS011;71849;50.096;14.458;2023-11-22T05:15:08;15.18;;;7.28;;
82244;SDS011;71849;50.096;14.458;2023-11-22T05:17:39;14.80;;;7.75;;
82244;SDS011;71849;50.096;14.458;2023-11-22T05:20:10;15.77;;;7.28;;
82244;SDS011;71849;50.096;14.458;2023-11-22T05:22:40;9.80;;;6.03;;
82244;SDS011;71849;50.096;14.458;2023-11-22T05:25:08;18.45;;;8.32;;
82244;SDS011;71849;50.096;14.458;2023-11-22T05:27:37;16.15;;;7.57;;
82244;SDS011;71849;50.096;14.458;2023-11-22T05:30:06;14.93;;;6.70;;
82244;SDS011;71849;50.096;14.458;2023-11-22T05:32:36;19.88;;;8.32;;
82244;SDS011;71849;50.096;14.458;2023-11-22T05:35:05;18.63;;;7.28;;
82244;SDS011;71849;50.096;14.458;2023-11-22T05:37:37;15.75;;;6.30;;
82244;SDS011;71849;50.096;14.458;2023-11-22T05:40:07;16.55;;;8.63;;
82244;SDS011;71849;50.096;14.458;2023-11-22T05:42:37;17.92;;;9.13;;
82244;SDS011;71849;50.096;14.458;2023-11-22T05:45:06;18.48;;;8.02;;
82244;SDS011;71849;50.096;14.458;2023-11-22T05:52:33;19.02;;;8.00;;
82244;SDS011;71849;50.096;14.458;2023-11-22T05:55:05;16.73;;;8.00;;
82244;SDS011;71849;50.096;14.458;2023-11-22T05:57:34;17.85;;;7.65;;
82244;SDS011;71849;50.096;14.458;2023-11-22T06:00:03;15.35;;;7.57;;
82244;SDS011;71849;50.096;14.458;2023-11-22T06:02:32;13.48;;;5.28;;
82244;SDS011;71849;50.096;14.458;2023-11-22T06:05:01;17.40;;;8.23;;
82244;SDS011;71849;50.096;14.458;2023-11-22T06:07:30;17.58;;;8.27;;
82244;SDS011;71849;50.096;14.458;2023-11-22T06:09:59;16.50;;;8.90;;
82244;SDS011;71849;50.096;14.458;2023-11-22T06:12:31;17.48;;;8.25;;
82244;SDS011;71849;50.096;14.458;2023-11-22T06:14:59;15.82;;;7.72;;
82244;SDS011;71849;50.096;14.458;2023-11-22T06:17:29;17.27;;;7.97;;
82244;SDS011;71849;50.096;14.458;2023-11-22T06:19:58;19.55;;;7.97;;
82244;SDS011;71849;50.096;14.458;2023-11-22T06:22:28;15.93;;;6.97;;
82244;SDS011;71849;50.096;14.458;2023-11-22T06:24:57;17.52;;;8.18;;
82244;SDS011;71849;50.096;14.458;2023-11-22T06:27:26;16.98;;;8.18;;
82244;SDS011;71849;50.096;14.458;2023-11-22T06:29:57;14.82;;;6.78;;
82244;SDS011;71849;50.096;14.458;2023-11-22T06:32:26;17.40;;;7.88;;
82244;SDS011;71849;50.096;14.458;2023-11-22T06:34:54;19.05;;;8.32;;
82244;SDS011;71849;50.096;14.458;2023-11-22T06:37:23;13.68;;;6.97;;
82244;SDS011;71849;50.096;14.458;2023-11-22T06:39:52;16.50;;;7.25;;
82244;SDS011;71849;50.096;14.458;2023-11-22T06:42:22;17.98;;;8.13;;
82244;SDS011;71849;50.096;14.458;2023-11-22T06:44:51;17.63;;;7.47;;
82244;SDS011;71849;50.096;14.458;2023-11-22T06:47:26;16.48;;;6.95;;
82244;SDS011;71849;50.096;14.458;2023-11-22T06:49:55;17.08;;;7.45;;
82244;SDS011;71849;50.096;14.458;2023-11-22T06:52:24;19.15;;;9.32;;
82244;SDS011;71849;50.096;14.458;2023-11-22T06:54:53;16.15;;;6.43;;
82244;SDS011;71849;50.096;14.458;2023-11-22T06:57:21;16.40;;;7.57;;
82244;SDS011;71849;50.096;14.458;2023-11-22T06:59:54;19.55;;;8.48;;
82244;SDS011;71849;50.096;14.458;2023-11-22T07:02:26;18.00;;;8.23;;
82244;SDS011;71849;50.096;14.458;2023-11-22T07:04:54;17.02;;;7.95;;
82244;SDS011;71849;50.096;14.458;2023-11-22T07:07:24;18.27;;;8.10;;
82244;SDS011;71849;50.096;14.458;2023-11-22T07:09:53;18.92;;;8.40;;
82244;SDS011;71849;50.096;14.458;2023-11-22T07:12:23;18.05;;;7.55;;
82244;SDS011;71849;50.096;14.458;2023-11-22T07:14:52;14.60;;;7.72;;
82244;SDS011;71849;50.096;14.458;2023-11-22T07:17:21;19.30;;;8.95;;
82244;SDS011;71849;50.096;14.458;2023-11-22T07:19:55;18.63;;;8.57;;
82244;SDS011;71849;50.096;14.458;2023-11-22T07:22:24;16.00;;;7.90;;
82244;SDS011;71849;50.096;14.458;2023-11-22T07:24:53;19.30;;;8.38;;
82244;SDS011;71849;50.096;14.458;2023-11-22T07:27:25;24.33;;;9.82;;
82244;SDS011;71849;50.096;14.458;2023-11-22T07:29:57;16.70;;;8.45;;
82244;SDS011;71849;50.096;14.458;2023-11-22T07:32:26;18.15;;;8.77;;
82244;SDS011;71849;50.096;14.458;2023-11-22T07:34:57;15.68;;;8.13;;
82244;SDS011;71849;50.096;14.458;2023-11-22T07:37:28;15.27;;;6.90;;
82244;SDS011;71849;50.096;14.458;2023-11-22T07:39:57;18.23;;;8.27;;
82244;SDS011;71849;50.096;14.458;2023-11-22T07:42:26;15.52;;;6.93;;
82244;SDS011;71849;50.096;14.458;2023-11-22T07:44:54;20.85;;;8.98;;
82244;SDS011;71849;50.096;14.458;2023-11-22T07:47:24;22.55;;;8.40;;
82244;SDS011;71849;50.096;14.458;2023-11-22T07:49:53;15.93;;;6.68;;
82244;SDS011;71849;50.096;14.458;2023-11-22T07:52:25;19.98;;;8.63;;
82244;SDS011;71849;50.096;14.458;2023-11-22T07:54:55;17.92;;;8.32;;
82244;SDS011;71849;50.096;14.458;2023-11-22T07:57:24;21.30;;;8.98;;
82244;SDS011;71849;50.096;14.458;2023-11-22T07:59:53;17.90;;;8.55;;
82244;SDS011;71849;50.096;14.458;2023-11-22T08:02:25;21.30;;;9.40;;
82244;SDS011;71849;50.096;14.458;2023-11-22T08:04:53;21.42;;;9.38;;
82244;SDS011;71849;50.096;14.458;2023-11-22T08:07:25;19.88;;;9.93;;
82244;SDS011;71849;50.096;14.458;2023-11-22T08:09:54;21.55;;;9.55;;
82244;SDS011;71849;50.096;14.458;2023-11-22T08:12:22;23.23;;;9.48;;
82244;SDS011;71849;50.096;14.458;2023-11-22T08:14:54;24.98;;;10.07;;
82244;SDS011;71849;50.096;14.458;2023-11-22T08:17:22;23.83;;;10.40;;
82244;SDS011;71849;50.096;14.458;2023-11-22T08:19:58;18.73;;;9.52;;
82244;SDS011;71849;50.096;14.458;2023-11-22T08:22:33;23.27;;;10.18;;
82244;SDS011;71849;50.096;14.458;2023-11-22T08:25:02;22.75;;;10.60;;
82244;SDS011;71849;50.096;14.458;2023-11-22T08:27:31;20.13;;;9.15;;
82244;SDS011;71849;50.096;14.458;2023-11-22T08:29:59;25.05;;;11.30;;
82244;SDS011;71849;50.096;14.458;2023-11-22T08:32:30;26.08;;;10.63;;
82244;SDS011;71849;50.096;14.458;2023-11-22T08:34:58;20.70;;;9.30;;
82244;SDS011;71849;50.096;14.458;2023-11-22T08:37:35;23.92;;;10.48;;
82244;SDS011;71849;50.096;14.458;2023-11-22T08:40:06;21.42;;;8.50;;
82244;SDS011;71849;50.096;14.458;2023-11-22T08:42:39;22.90;;;10.18;;
82244;SDS011;71849;50.096;14.458;2023-11-22T08:45:09;23.85;;;10.70;;
82244;SDS011;71849;50.096;14.458;2023-11-22T08:47:38;22.77;;;9.68;;
82244;SDS011;71849;50.096;14.458;2023-11-22T08:50:06;26.08;;;10.65;;
82244;SDS011;71849;50.096;14.458;2023-11-22T08:52:38;23.80;;;9.93;;
82244;SDS011;71849;50.096;14.458;2023-11-22T08:55:10;24.27;;;11.35;;
82244;SDS011;71849;50.096;14.458;2023-11-22T08:57:39;24.73;;;10.27;;
82244;SDS011;71849;50.096;14.458;2023-11-22T09:00:09;19.63;;;7.93;;
82244;SDS011;71849;50.096;14.458;2023-11-22T09:02:41;24.40;;;9.45;;
82244;SDS011;71849;50.096;14.458;2023-11-22T09:05:19;23.98;;;9.45;;
82244;SDS011;71849;50.096;14.458;2023-11-22T09:07:52;23.15;;;9.43;;
82244;SDS011;71849;50.096;14.458;2023-11-22T09:10:21;22.00;;;9.32;;
82244;SDS011;71849;50.096;14.458;2023-11-22T09:12:50;20.40;;;9.52;;
82244;SDS011;71849;50.096;14.458;2023-11-22T09:15:19;25.98;;;9.35;;
82244;SDS011;71849;50.096;14.458;2023-11-22T09:17:51;23.35;;;10.05;;
82244;SDS011;71849;50.096;14.458;2023-11-22T09:20:20;24.05;;;10.63;;
82244;SDS011;71849;50.096;14.458;2023-11-22T09:22:49;18.92;;;9.30;;
82244;SDS011;71849;50.096;14.458;2023-11-22T09:25:22;20.02;;;9.30;;
82244;SDS011;71849;50.096;14.458;2023-11-22T09:27:53;24.35;;;10.23;;
82244;SDS011;71849;50.096;14.458;2023-11-22T09:30:24;21.98;;;9.82;;
82244;SDS011;71849;50.096;14.458;2023-11-22T09:33:01;25.80;;;10.13;;
82244;SDS011;71849;50.096;14.458;2023-11-22T09:35:31;23.55;;;9.43;;
82244;SDS011;71849;50.096;14.458;2023-11-22T09:38:09;21.00;;;9.68;;
82244;SDS011;71849;50.096;14.458;2023-11-22T09:40:43;21.60;;;9.93;;
82244;SDS011;71849;50.096;14.458;2023-11-22T09:43:15;16.73;;;7.72;;
82244;SDS011;71849;50.096;14.458;2023-11-22T09:45:54;20.38;;;9.70;;
82244;SDS011;71849;50.096;14.458;2023-11-22T09:48:23;20.85;;;9.80;;
82244;SDS011;71849;50.096;14.458;2023-11-22T09:50:54;20.23;;;9.65;;
82244;SDS011;71849;50.096;14.458;2023-11-22T09:53:30;23.67;;;11.20;;
82244;SDS011;71849;50.096;14.458;2023-11-22T09:56:02;20.02;;;9.15;;
82244;SDS011;71849;50.096;14.458;2023-11-22T09:58:32;24.40;;;10.32;;
82244;SDS011;71849;50.096;14.458;2023-11-22T10:01:02;20.58;;;9.50;;
82244;SDS011;71849;50.096;14.458;2023-11-22T10:03:30;27.08;;;11.05;;
82244;SDS011;71849;50.096;14.458;2023-11-22T10:05:59;22.15;;;9.02;;
82244;SDS011;71849;50.096;14.458;2023-11-22T10:08:33;16.38;;;7.05;;
82244;SDS011;71849;50.096;14.458;2023-11-22T10:11:03;22.77;;;9.65;;
82244;SDS011;71849;50.096;14.458;2023-11-22T10:13:32;21.80;;;10.18;;
82244;SDS011;71849;50.096;14.458;2023-11-22T10:16:08;24.08;;;8.73;;
82244;SDS011;71849;50.096;14.458;2023-11-22T10:18:40;17.67;;;7.93;;
82244;SDS011;71849;50.096;14.458;2023-11-22T10:21:22;22.27;;;10.82;;
82244;SDS011;71849;50.096;14.458;2023-11-22T10:23:56;23.20;;;8.45;;
82244;SDS011;71849;50.096;14.458;2023-11-22T10:26:27;18.40;;;10.32;;
82244;SDS011;71849;50.096;14.458;2023-11-22T10:28:58;20.20;;;9.55;;
82244;SDS011;71849;50.096;14.458;2023-11-22T10:31:27;20.00;;;8.20;;
82244;SDS011;71849;50.096;14.458;2023-11-22T10:33:56;17.65;;;8.95;;
82244;SDS011;71849;50.096;14.458;2023-11-22T10:36:25;12.35;;;6.05;;
82244;SDS011;71849;50.096;14.458;2023-11-22T10:38:56;18.33;;;8.07;;
82244;SDS011;71849;50.096;14.458;2023-11-22T10:41:26;17.70;;;8.43;;
82244;SDS011;71849;50.096;14.458;2023-11-22T10:43:54;20.77;;;8.95;;
82244;SDS011;71849;50.096;14.458;2023-11-22T10:46:25;19.15;;;7.88;;
82244;SDS011;71849;50.096;14.458;2023-11-22T10:48:56;15.65;;;7.88;;
82244;SDS011;71849;50.096;14.458;2023-11-22T10:51:29;15.30;;;7.57;;
82244;SDS011;71849;50.096;14.458;2023-11-22T10:54:02;20.95;;;9.40;;
82244;SDS011;71849;50.096;14.458;2023-11-22T10:56:34;19.33;;;9.43;;
82244;SDS011;71849;50.096;14.458;2023-11-22T10:59:08;16.90;;;8.20;;
82244;SDS011;71849;50.096;14.458;2023-11-22T11:01:38;24.15;;;9.73;;
82244;SDS011;71849;50.096;14.458;2023-11-22T11:04:17;21.52;;;8.60;;
82244;SDS011;71849;50.096;14.458;2023-11-22T11:06:49;20.17;;;9.77;;
82244;SDS011;71849;50.096;14.458;2023-11-22T11:09:24;20.55;;;9.05;;
82244;SDS011;71849;50.096;14.458;2023-11-22T11:11:57;19.70;;;9.77;;
82244;SDS011;71849;50.096;14.458;2023-11-22T11:14:27;19.98;;;9.20;;
82244;SDS011;71849;50.096;14.458;2023-11-22T11:16:57;16.40;;;7.80;;
82244;SDS011;71849;50.096;14.458;2023-11-22T11:19:26;22.35;;;9.77;;
82244;SDS011;71849;50.096;14.458;2023-11-22T11:21:55;21.77;;;9.32;;
82244;SDS011;71849;50.096;14.458;2023-11-22T11:24:28;27.38;;;9.57;;
82244;SDS011;71849;50.096;14.458;2023-11-22T11:26:57;21.80;;;10.55;;
82244;SDS011;71849;50.096;14.458;2023-11-22T11:29:30;19.35;;;9.60;;
82244;SDS011;71849;50.096;14.458;2023-11-22T11:32:01;21.23;;;10.45;;
82244;SDS011;71849;50.096;14.458;2023-11-22T11:34:31;23.25;;;9.55;;
82244;SDS011;71849;50.096;14.458;2023-11-22T11:37:02;20.60;;;9.07;;
82244;SDS011;71849;50.096;14.458;2023-11-22T11:39:34;19.33;;;8.20;;
82244;SDS011;71849;50.096;14.458;2023-11-22T11:42:10;17.65;;;8.45;;
82244;SDS011;71849;50.096;14.458;2023-11-22T11:44:50;18.40;;;8.13;;
82244;SDS011;71849;50.096;14.458;2023-11-22T11:47:31;19.02;;;8.60;;
82244;SDS011;71849;50.096;14.458;2023-11-22T11:50:00;21.52;;;8.98;;
82244;SDS011;71849;50.096;14.458;2023-11-22T11:52:31;19.10;;;8.52;;
82244;SDS011;71849;50.096;14.458;2023-11-22T11:55:03;22.77;;;9.60;;
82244;SDS011;71849;50.096;14.458;2023-11-22T11:57:33;20.92;;;9.30;;
82244;SDS011;71849;50.096;14.458;2023-11-22T12:00:02;23.05;;;9.02;;
82244;SDS011;71849;50.096;14.458;2023-11-22T12:02:31;19.00;;;9.00;;
82244;SDS011;71849;50.096;14.458;2023-11-22T12:05:00;21.38;;;8.25;;
82244;SDS011;71849;50.096;14.458;2023-11-22T12:07:33;18.98;;;8.63;;
82244;SDS011;71849;50.096;14.458;2023-11-22T12:10:05;20.38;;;9.77;;
82244;SDS011;71849;50.096;14.458;2023-11-22T12:12:35;23.90;;;9.27;;
82244;SDS011;71849;50.096;14.458;2023-11-22T12:15:04;20.63;;;8.52;;
82244;SDS011;71849;50.096;14.458;2023-11-22T12:20:14;19.17;;;8.50;;
82244;SDS011;71849;50.096;14.458;2023-11-22T12:22:46;22.20;;;8.85;;
82244;SDS011;71849;50.096;14.458;2023-11-22T12:25:18;25.13;;;9.48;;
82244;SDS011;71849;50.096;14.458;2023-11-22T12:27:48;19.95;;;9.27;;
82244;SDS011;71849;50.096;14.458;2023-11-22T12:30:29;19.52;;;8.15;;
82244;SDS011;71849;50.096;14.458;2023-11-22T12:33:02;21.15;;;9.57;;
82244;SDS011;71849;50.096;14.458;2023-11-22T12:35:32;21.48;;;9.40;;
82244;SDS011;71849;50.096;14.458;2023-11-22T12:38:05;20.48;;;9.20;;
82244;SDS011;71849;50.096;14.458;2023-11-22T12:40:34;13.85;;;6.00;;
82244;SDS011;71849;50.096;14.458;2023-11-22T12:43:03;20.52;;;9.65;;
82244;SDS011;71849;50.096;14.458;2023-11-22T12:50:48;20.52;;;9.15;;
82244;SDS011;71849;50.096;14.458;2023-11-22T12:53:17;20.40;;;9.93;;
82244;SDS011;71849;50.096;14.458;2023-11-22T12:55:49;22.02;;;9.25;;
82244;SDS011;71849;50.096;14.458;2023-11-22T12:58:19;18.83;;;8.40;;
82244;SDS011;71849;50.096;14.458;2023-11-22T13:00:49;18.40;;;8.73;;
82244;SDS011;71849;50.096;14.458;2023-11-22T13:03:23;21.40;;;9.77;;
82244;SDS011;71849;50.096;14.458;2023-11-22T13:05:55;25.85;;;10.02;;
82244;SDS011;71849;50.096;14.458;2023-11-22T13:08:24;22.25;;;10.27;;
82244;SDS011;71849;50.096;14.458;2023-11-22T13:10:57;21.42;;;9.27;;
82244;SDS011;71849;50.096;14.458;2023-11-22T13:13:26;22.80;;;8.90;;
82244;SDS011;71849;50.096;14.458;2023-11-22T13:15:55;23.15;;;8.55;;
82244;SDS011;71849;50.096;14.458;2023-11-22T13:18:25;22.33;;;10.15;;
82244;SDS011;71849;50.096;14.458;2023-11-22T13:20:54;17.60;;;8.27;;
82244;SDS011;71849;50.096;14.458;2023-11-22T13:23:23;17.33;;;7.82;;
82244;SDS011;71849;50.096;14.458;2023-11-22T13:25:51;18.13;;;7.55;;
82244;SDS011;71849;50.096;14.458;2023-11-22T13:28:22;21.10;;;8.35;;
82244;SDS011;71849;50.096;14.458;2023-11-22T13:30:51;18.40;;;7.85;;
82244;SDS011;71849;50.096;14.458;2023-11-22T13:33:20;17.30;;;8.00;;
82244;SDS011;71849;50.096;14.458;2023-11-22T13:35:49;16.90;;;7.90;;
82244;SDS011;71849;50.096;14.458;2023-11-22T13:38:17;16.20;;;7.72;;
82244;SDS011;71849;50.096;14.458;2023-11-22T13:40:46;21.63;;;8.68;;
82244;SDS011;71849;50.096;14.458;2023-11-22T13:43:15;17.73;;;7.70;;
82244;SDS011;71849;50.096;14.458;2023-11-22T13:45:47;20.55;;;9.10;;
82244;SDS011;71849;50.096;14.458;2023-11-22T13:48:16;19.23;;;8.50;;
82244;SDS011;71849;50.096;14.458;2023-11-22T13:50:45;22.25;;;10.00;;
82244;SDS011;71849;50.096;14.458;2023-11-22T13:53:14;19.52;;;8.40;;
82244;SDS011;71849;50.096;14.458;2023-11-22T13:55:46;19.33;;;8.77;;
82244;SDS011;71849;50.096;14.458;2023-11-22T13:58:16;16.83;;;7.97;;
82244;SDS011;71849;50.096;14.458;2023-11-22T14:00:45;19.05;;;9.40;;
82244;SDS011;71849;50.096;14.458;2023-11-22T14:03:19;16.73;;;7.80;;
82244;SDS011;71849;50.096;14.458;2023-11-22T14:05:48;19.08;;;9.23;;
82244;SDS011;71849;50.096;14.458;2023-11-22T14:08:18;19.73;;;8.68;;
82244;SDS011;71849;50.096;14.458;2023-11-22T14:10:47;18.92;;;7.63;;
82244;SDS011;71849;50.096;14.458;2023-11-22T14:13:15;19.80;;;8.98;;
82244;SDS011;71849;50.096;14.458;2023-11-22T14:15:49;19.02;;;8.07;;
82244;SDS011;71849;50.096;14.458;2023-11-22T14:18:18;21.65;;;8.15;;
82244;SDS011;71849;50.096;14.458;2023-11-22T14:20:47;22.30;;;9.90;;
82244;SDS011;71849;50.096;14.458;2023-11-22T14:23:15;21.25;;;9.50;;
82244;SDS011;71849;50.096;14.458;2023-11-22T14:25:46;21.48;;;9.40;;
82244;SDS011;71849;50.096;14.458;2023-11-22T14:28:14;21.75;;;10.57;;
82244;SDS011;71849;50.096;14.458;2023-11-22T14:30:44;21.25;;;9.00;;
82244;SDS011;71849;50.096;14.458;2023-11-22T14:33:17;19.65;;;8.82;;
82244;SDS011;71849;50.096;14.458;2023-11-22T14:35:46;21.35;;;9.52;;
82244;SDS011;71849;50.096;14.458;2023-11-22T14:38:14;19.90;;;8.43;;
82244;SDS011;71849;50.096;14.458;2023-11-22T14:40:43;18.83;;;8.75;;
82244;SDS011;71849;50.096;14.458;2023-11-22T14:43:12;18.35;;;8.05;;
82244;SDS011;71849;50.096;14.458;2023-11-22T14:45:40;17.88;;;8.48;;
82244;SDS011;71849;50.096;14.458;2023-11-22T14:48:09;20.20;;;9.20;;
82244;SDS011;71849;50.096;14.458;2023-11-22T14:50:40;21.77;;;8.85;;
82244;SDS011;71849;50.096;14.458;2023-11-22T14:53:09;25.05;;;10.80;;
82244;SDS011;71849;50.096;14.458;2023-11-22T14:55:39;20.70;;;9.20;;